Time;durP1;ratioP1;P1;durP2;ratioP2;P2;SDS_P1;SDS_P2;PMS_P1;PMS_P2;Temp;Humidity;BMP_temperature;BMP_pressure;BME280_temperature;BME280_humidity;BME280_pressure;Samples;Min_cycle;Max_cycle;Signal;HPM_P1;HPM_P2
2023/12/06 00:02:02;;;;;;;0.20;0.00;;;;;;;;;;4936115;29;20051;-87
2023/12/06 00:04:30;;;;;;;0.20;0.10;;;;;;;;;;4934375;28;20074;-85
2023/12/06 00:06:56;;;;;;;0.20;0.10;;;;;;;;;;4962773;28;20405;-86
2023/12/06 00:09:22;;;;;;;0.20;0.10;;;;;;;;;;4930671;29;20067;-85
2023/12/06 00:11:48;;;;;;;0.43;0.25;;;;;;;;;;4960463;28;20039;-86
2023/12/06 00:14:17;;;;;;;0.20;0.10;;;;;;;;;;4948643;28;20050;-87
2023/12/06 00:16:43;;;;;;;0.20;0.10;;;;;;;;;;4932964;29;20054;-84
2023/12/06 00:19:09;;;;;;;0.20;0.10;;;;;;;;;;4946385;28;20130;-86
2023/12/06 00:21:35;;;;;;;0.20;0.10;;;;;;;;;;4946866;28;20119;-86
2023/12/06 00:24:04;;;;;;;0.50;0.50;;;;;;;;;;4949053;28;20051;-85
2023/12/06 00:26:30;;;;;;;0.20;0.10;;;;;;;;;;4932275;29;20039;-86
2023/12/06 00:28:56;;;;;;;0.20;0.10;;;;;;;;;;4947360;28;20051;-88
2023/12/06 00:31:22;;;;;;;0.20;0.10;;;;;;;;;;4931961;29;20496;-87
2023/12/06 00:33:48;;;;;;;0.20;0.10;;;;;;;;;;4948717;28;20035;-85
2023/12/06 00:36:14;;;;;;;0.20;0.10;;;;;;;;;;4930979;29;20047;-85
2023/12/06 00:38:40;;;;;;;0.20;0.08;;;;;;;;;;4949007;28;21113;-88
2023/12/06 00:41:06;;;;;;;0.20;0.10;;;;;;;;;;4927893;29;20508;-88
2023/12/06 00:43:32;;;;;;;0.20;0.10;;;;;;;;;;4947174;28;20094;-86
2023/12/06 00:45:58;;;;;;;0.20;0.10;;;;;;;;;;4926574;28;20043;-86
2023/12/06 00:48:24;;;;;;;0.20;0.10;;;;;;;;;;4944934;29;20058;-86
2023/12/06 00:50:50;;;;;;;0.20;0.10;;;;;;;;;;4945973;28;20848;-86
2023/12/06 00:53:16;;;;;;;0.20;0.10;;;;;;;;;;4929269;28;20085;-86
2023/12/06 00:55:42;;;;;;;0.30;0.30;;;;;;;;;;4947706;28;20039;-86
2023/12/06 00:58:08;;;;;;;2.75;0.55;;;;;;;;;;4943450;28;20047;-86
2023/12/06 01:00:34;;;;;;;0.20;0.10;;;;;;;;;;4928978;28;20158;-85
2023/12/06 01:03:00;;;;;;;0.20;0.10;;;;;;;;;;4930077;29;20403;-87
2023/12/06 01:05:26;;;;;;;11.65;1.02;;;;;;;;;;4947086;29;20047;-84
2023/12/06 01:07:52;;;;;;;0.30;0.30;;;;;;;;;;4940979;28;20045;-86
2023/12/06 01:10:18;;;;;;;0.57;0.32;;;;;;;;;;4929710;29;20044;-85
2023/12/06 01:12:44;;;;;;;0.50;0.30;;;;;;;;;;4929690;28;20547;-85
2023/12/06 01:15:11;;;;;;;0.20;0.10;;;;;;;;;;4927291;28;20134;-85
2023/12/06 01:17:37;;;;;;;0.20;0.10;;;;;;;;;;4930553;28;20051;-84
2023/12/06 01:22:30;;;;;;;0.20;0.10;;;;;;;;;;4959564;23;20440;-84
2023/12/06 01:24:57;;;;;;;0.20;0.10;;;;;;;;;;4940559;28;20043;-84
2023/12/06 01:27:23;;;;;;;0.20;0.10;;;;;;;;;;4925718;29;20039;-84
2023/12/06 01:29:49;;;;;;;0.20;0.10;;;;;;;;;;4923614;29;20451;-83
2023/12/06 01:32:15;;;;;;;0.20;0.10;;;;;;;;;;4955284;28;20047;-83
2023/12/06 01:34:41;;;;;;;0.20;0.10;;;;;;;;;;4955307;28;20039;-83
2023/12/06 01:37:07;;;;;;;0.43;0.32;;;;;;;;;;4958519;28;20496;-84
2023/12/06 01:39:33;;;;;;;0.22;0.20;;;;;;;;;;4958093;28;20137;-83
2023/12/06 01:41:59;;;;;;;0.20;0.10;;;;;;;;;;4945121;28;20392;-83
2023/12/06 01:44:26;;;;;;;0.20;0.10;;;;;;;;;;4943216;28;20050;-83
2023/12/06 01:46:52;;;;;;;0.20;0.10;;;;;;;;;;4935226;28;20047;-83
2023/12/06 01:49:19;;;;;;;0.20;0.10;;;;;;;;;;4944332;28;20138;-82
2023/12/06 01:51:45;;;;;;;0.20;0.10;;;;;;;;;;4944699;28;20056;-83
2023/12/06 01:54:11;;;;;;;0.20;0.20;;;;;;;;;;4957618;28;20045;-83
2023/12/06 01:56:38;;;;;;;0.20;0.10;;;;;;;;;;4939248;28;20547;-83
2023/12/06 01:59:07;;;;;;;0.20;0.10;;;;;;;;;;4953453;28;20129;-82
2023/12/06 02:01:33;;;;;;;1.00;1.00;;;;;;;;;;4960169;28;20567;-83
2023/12/06 02:04:00;;;;;;;0.20;0.10;;;;;;;;;;4956140;28;20050;-83
2023/12/06 02:06:26;;;;;;;0.60;0.20;;;;;;;;;;4958584;28;20406;-83
2023/12/06 02:08:53;;;;;;;0.20;0.10;;;;;;;;;;4945012;28;20463;-84
2023/12/06 02:11:19;;;;;;;0.30;0.20;;;;;;;;;;4961766;28;20770;-83
2023/12/06 02:13:45;;;;;;;0.20;0.10;;;;;;;;;;4942563;28;20035;-83
2023/12/06 02:16:11;;;;;;;0.20;0.00;;;;;;;;;;4940503;28;20122;-83
2023/12/06 02:18:37;;;;;;;0.20;0.10;;;;;;;;;;4956752;28;20070;-83
2023/12/06 02:21:03;;;;;;;0.20;0.20;;;;;;;;;;4960496;28;20129;-83
2023/12/06 02:23:31;;;;;;;0.20;0.10;;;;;;;;;;4944297;28;20118;-82
2023/12/06 02:25:57;;;;;;;0.20;0.10;;;;;;;;;;4939175;28;20038;-82
2023/12/06 02:28:23;;;;;;;0.43;0.40;;;;;;;;;;4955581;28;20318;-83
2023/12/06 02:30:49;;;;;;;1.55;1.08;;;;;;;;;;4945714;28;20034;-83
2023/12/06 02:33:15;;;;;;;0.20;0.10;;;;;;;;;;4953026;28;20039;-82
2023/12/06 02:35:50;;;;;;;0.20;0.10;;;;;;;;;;4958833;28;20795;-84
2023/12/06 02:38:18;;;;;;;0.20;0.00;;;;;;;;;;4937708;28;20038;-83
2023/12/06 02:40:46;;;;;;;0.20;0.10;;;;;;;;;;4955583;28;20219;-83
2023/12/06 02:43:13;;;;;;;0.20;0.10;;;;;;;;;;4940349;28;20042;-83
2023/12/06 02:45:42;;;;;;;0.20;0.05;;;;;;;;;;4942606;28;20130;-83
2023/12/06 02:48:08;;;;;;;0.22;0.15;;;;;;;;;;4956190;28;20408;-83
2023/12/06 02:50:34;;;;;;;0.20;0.10;;;;;;;;;;4953646;28;20038;-82
2023/12/06 02:53:00;;;;;;;0.20;0.10;;;;;;;;;;4942950;28;20054;-84
2023/12/06 02:55:26;;;;;;;0.20;0.10;;;;;;;;;;4941465;28;20045;-83
2023/12/06 02:57:52;;;;;;;0.20;0.10;;;;;;;;;;4936750;28;20035;-84
2023/12/06 03:00:18;;;;;;;0.20;0.05;;;;;;;;;;4944804;28;20038;-84
2023/12/06 03:02:44;;;;;;;0.20;0.10;;;;;;;;;;4940017;28;20043;-83
2023/12/06 03:05:10;;;;;;;0.30;0.22;;;;;;;;;;4943509;28;20046;-85
2023/12/06 03:07:36;;;;;;;0.20;0.10;;;;;;;;;;4947592;28;20043;-84
2023/12/06 03:10:08;;;;;;;0.20;0.20;;;;;;;;;;4949384;28;20042;-83
2023/12/06 03:12:34;;;;;;;0.40;0.40;;;;;;;;;;4959754;28;20042;-84
2023/12/06 03:15:00;;;;;;;0.20;0.10;;;;;;;;;;4950859;28;20043;-83
2023/12/06 03:17:26;;;;;;;0.30;0.30;;;;;;;;;;4942379;28;20130;-83
2023/12/06 03:19:52;;;;;;;0.20;0.10;;;;;;;;;;4951361;28;20054;-83
2023/12/06 03:22:24;;;;;;;0.85;0.35;;;;;;;;;;4962981;28;20058;-84
2023/12/06 03:25:03;;;;;;;0.90;0.80;;;;;;;;;;4964228;28;20043;-84
2023/12/06 03:27:29;;;;;;;0.20;0.10;;;;;;;;;;4965434;28;20043;-83
2023/12/06 03:29:58;;;;;;;0.20;0.05;;;;;;;;;;4949826;28;20048;-84
2023/12/06 03:32:24;;;;;;;0.20;0.10;;;;;;;;;;4943792;28;20074;-83
2023/12/06 03:34:50;;;;;;;0.20;0.10;;;;;;;;;;4961974;28;20042;-84
2023/12/06 03:37:24;;;;;;;0.45;0.30;;;;;;;;;;4944069;28;20526;-85
2023/12/06 03:42:38;;;;;;;0.20;0.10;;;;;;;;;;5006124;22;20523;-84
2023/12/06 03:45:17;;;;;;;;;;;;;;;;;;;;;
2023/12/06 03:48:07;;;;;;;0.20;0.10;;;;;;;;;;4952725;28;20053;-85
2023/12/06 03:53:48;;;;;;;;;;;;;;;;;;;;;
2023/12/06 03:56:17;;;;;;;0.20;0.10;;;;;;;;;;4929211;29;20051;-85
2023/12/06 03:58:49;;;;;;;0.20;0.10;;;;;;;;;;4946467;28;20546;-85
2023/12/06 04:01:35;;;;;;;0.20;0.10;;;;;;;;;;4914137;29;20051;-88
2023/12/06 04:04:12;;;;;;;0.20;0.10;;;;;;;;;;4933414;29;20062;-84
2023/12/06 04:06:50;;;;;;;0.20;0.20;;;;;;;;;;4935906;29;20070;-87
2023/12/06 04:09:50;;;;;;;0.20;0.10;;;;;;;;;;4935479;29;20503;-86
2023/12/06 04:12:27;;;;;;;0.30;0.30;;;;;;;;;;4935637;29;20051;-88
2023/12/06 04:15:00;;;;;;;0.20;0.10;;;;;;;;;;4937371;29;20043;-88
2023/12/06 04:17:52;;;;;;;0.20;0.10;;;;;;;;;;4920026;28;20039;-86
2023/12/06 04:20:18;;;;;;;0.20;0.13;;;;;;;;;;4928595;29;20051;-85
2023/12/06 04:22:49;;;;;;;0.20;0.10;;;;;;;;;;4930072;28;20059;-88
2023/12/06 04:25:19;;;;;;;0.20;0.10;;;;;;;;;;4918049;29;20039;-87
2023/12/06 04:27:57;;;;;;;0.20;0.10;;;;;;;;;;4927603;28;20122;-86
2023/12/06 04:30:53;;;;;;;2.30;0.52;;;;;;;;;;4951219;28;20117;-86
2023/12/06 04:33:55;;;;;;;0.20;0.10;;;;;;;;;;4930471;29;20055;-87
2023/12/06 04:36:23;;;;;;;0.20;0.10;;;;;;;;;;4943955;28;20094;-85
2023/12/06 04:38:52;;;;;;;0.20;0.10;;;;;;;;;;4919420;29;20488;-87
2023/12/06 04:41:18;;;;;;;0.20;0.10;;;;;;;;;;4934952;28;20037;-86
2023/12/06 04:46:55;;;;;;;0.60;0.60;;;;;;;;;;4945300;28;20047;-88
2023/12/06 04:49:36;;;;;;;0.20;0.10;;;;;;;;;;4946306;28;20039;-85
2023/12/06 04:52:06;;;;;;;0.20;0.10;;;;;;;;;;4929361;29;20539;-86
2023/12/06 04:54:32;;;;;;;0.20;0.10;;;;;;;;;;4918162;29;20047;-85
2023/12/06 04:56:59;;;;;;;0.20;0.10;;;;;;;;;;4931278;29;20051;-84
2023/12/06 04:59:25;;;;;;;0.20;0.10;;;;;;;;;;4927114;29;20047;-86
2023/12/06 05:02:22;;;;;;;0.30;0.30;;;;;;;;;;4926233;28;20086;-86
2023/12/06 05:04:51;;;;;;;0.20;0.00;;;;;;;;;;4929155;28;20130;-85
2023/12/06 05:07:17;;;;;;;0.20;0.10;;;;;;;;;;4913869;28;20079;-86
2023/12/06 05:09:45;;;;;;;0.35;0.32;;;;;;;;;;4931621;29;20062;-86
2023/12/06 05:12:29;;;;;;;0.30;0.30;;;;;;;;;;4931770;29;20039;-86
2023/12/06 05:15:06;;;;;;;0.20;0.10;;;;;;;;;;4945541;28;20047;-84
2023/12/06 05:17:32;;;;;;;0.20;0.10;;;;;;;;;;4934400;28;20118;-84
2023/12/06 05:19:58;;;;;;;0.20;0.10;;;;;;;;;;4925612;29;20567;-85
2023/12/06 05:22:29;;;;;;;0.20;0.10;;;;;;;;;;4913090;29;20043;-86
2023/12/06 05:24:56;;;;;;;0.20;0.10;;;;;;;;;;4918445;28;20417;-86
2023/12/06 05:27:33;;;;;;;0.20;0.10;;;;;;;;;;4917982;29;20070;-88
2023/12/06 05:30:08;;;;;;;0.85;0.45;;;;;;;;;;4910274;28;20039;-85
2023/12/06 05:32:59;;;;;;;0.20;0.10;;;;;;;;;;4948525;28;20035;-89
2023/12/06 05:35:33;;;;;;;0.20;0.10;;;;;;;;;;4933971;29;20054;-87
2023/12/06 05:38:33;;;;;;;0.20;0.10;;;;;;;;;;4936323;29;20039;-88
2023/12/06 05:41:05;;;;;;;0.20;0.08;;;;;;;;;;4926239;28;20044;-88
2023/12/06 05:43:31;;;;;;;0.40;0.20;;;;;;;;;;4932628;29;20503;-87
2023/12/06 05:45:59;;;;;;;0.20;0.10;;;;;;;;;;4914218;29;20039;-86
2023/12/06 05:48:25;;;;;;;0.20;0.10;;;;;;;;;;4910127;28;20082;-85
2023/12/06 05:50:51;;;;;;;0.20;0.10;;;;;;;;;;4927914;28;20046;-86
2023/12/06 05:53:17;;;;;;;0.20;0.10;;;;;;;;;;4907807;28;20057;-84
2023/12/06 05:55:43;;;;;;;0.20;0.10;;;;;;;;;;4928443;28;20093;-86
2023/12/06 05:58:09;;;;;;;0.20;0.13;;;;;;;;;;4911538;28;20122;-86
2023/12/06 06:00:35;;;;;;;0.20;0.10;;;;;;;;;;4931646;28;20035;-85
2023/12/06 06:03:02;;;;;;;0.20;0.10;;;;;;;;;;4916607;28;20051;-85
2023/12/06 06:05:28;;;;;;;2.50;0.73;;;;;;;;;;4915765;28;20508;-85
2023/12/06 06:07:55;;;;;;;0.20;0.00;;;;;;;;;;4928312;29;20040;-85
2023/12/06 06:10:21;;;;;;;0.20;0.10;;;;;;;;;;4929156;29;20046;-86
2023/12/06 06:12:47;;;;;;;0.20;0.10;;;;;;;;;;4916706;28;20047;-85
2023/12/06 06:15:13;;;;;;;0.20;0.10;;;;;;;;;;4928447;29;20098;-85
2023/12/06 06:17:40;;;;;;;0.20;0.10;;;;;;;;;;4929022;28;20046;-86
2023/12/06 06:20:06;;;;;;;0.20;0.10;;;;;;;;;;4932788;28;20595;-86
2023/12/06 06:22:38;;;;;;;0.20;0.00;;;;;;;;;;4934579;29;20066;-86
2023/12/06 06:25:08;;;;;;;0.22;0.22;;;;;;;;;;4918470;29;20051;-86
2023/12/06 06:27:37;;;;;;;0.20;0.00;;;;;;;;;;4939920;28;20102;-85
2023/12/06 06:30:13;;;;;;;0.20;0.10;;;;;;;;;;4912820;29;20044;-84
2023/12/06 06:32:48;;;;;;;1.75;0.90;;;;;;;;;;4915497;29;20099;-85
2023/12/06 06:35:15;;;;;;;0.20;0.10;;;;;;;;;;4928892;28;20043;-83
2023/12/06 06:37:41;;;;;;;0.20;0.10;;;;;;;;;;4911706;28;20125;-84
2023/12/06 06:40:17;;;;;;;0.20;0.10;;;;;;;;;;4922966;29;20044;-84
2023/12/06 06:42:58;;;;;;;0.20;0.13;;;;;;;;;;4923042;29;20060;-84
2023/12/06 06:45:26;;;;;;;0.20;0.10;;;;;;;;;;4929831;29;20070;-84
2023/12/06 06:47:58;;;;;;;0.20;0.10;;;;;;;;;;4931880;29;20043;-84
2023/12/06 06:50:27;;;;;;;0.20;0.10;;;;;;;;;;4930823;29;20069;-85
2023/12/06 06:52:55;;;;;;;0.20;0.10;;;;;;;;;;4920573;28;20040;-84
2023/12/06 06:55:21;;;;;;;0.20;0.10;;;;;;;;;;4915990;28;20046;-85
2023/12/06 06:57:51;;;;;;;0.25;0.15;;;;;;;;;;4913794;29;20197;-85
2023/12/06 07:00:17;;;;;;;0.20;0.10;;;;;;;;;;4914049;28;20054;-84
2023/12/06 07:03:01;;;;;;;0.20;0.10;;;;;;;;;;4931791;29;20385;-86
2023/12/06 07:05:29;;;;;;;0.20;0.10;;;;;;;;;;4911933;29;20043;-85
2023/12/06 07:08:06;;;;;;;0.20;0.10;;;;;;;;;;4939772;29;20166;-87
2023/12/06 07:10:34;;;;;;;0.90;0.47;;;;;;;;;;4913220;29;20047;-86
2023/12/06 07:13:03;;;;;;;0.20;0.10;;;;;;;;;;4926406;28;20086;-88
2023/12/06 07:15:35;;;;;;;0.20;0.10;;;;;;;;;;4932069;29;20089;-87
2023/12/06 07:18:10;;;;;;;0.20;0.10;;;;;;;;;;4931054;29;20054;-87
2023/12/06 07:20:36;;;;;;;0.20;0.10;;;;;;;;;;4914719;29;20053;-86
2023/12/06 07:23:03;;;;;;;0.20;0.10;;;;;;;;;;4930732;29;20073;-86
2023/12/06 07:25:30;;;;;;;0.20;0.10;;;;;;;;;;4934912;29;20129;-87
2023/12/06 07:27:59;;;;;;;0.20;0.10;;;;;;;;;;4929969;28;20579;-85
2023/12/06 07:30:25;;;;;;;0.20;0.10;;;;;;;;;;4951571;28;20121;-86
2023/12/06 07:32:56;;;;;;;0.20;0.10;;;;;;;;;;4941842;28;20412;-87
2023/12/06 07:35:22;;;;;;;0.20;0.10;;;;;;;;;;4922740;29;20116;-86
2023/12/06 07:37:48;;;;;;;0.20;0.10;;;;;;;;;;4933871;29;20051;-86
2023/12/06 07:40:15;;;;;;;0.20;0.10;;;;;;;;;;4938585;28;20126;-85
2023/12/06 07:42:41;;;;;;;0.28;0.20;;;;;;;;;;4936361;28;20043;-85
2023/12/06 07:45:11;;;;;;;0.20;0.10;;;;;;;;;;4933741;29;20401;-87
2023/12/06 07:47:38;;;;;;;0.20;0.10;;;;;;;;;;4932909;28;20261;-86
2023/12/06 07:50:05;;;;;;;0.93;0.45;;;;;;;;;;4938832;29;20043;-86
2023/12/06 07:52:33;;;;;;;0.35;0.35;;;;;;;;;;4935146;28;20051;-86
2023/12/06 07:54:59;;;;;;;0.20;0.10;;;;;;;;;;4937810;28;20043;-85
2023/12/06 07:57:28;;;;;;;0.20;0.10;;;;;;;;;;4946948;29;20047;-86
2023/12/06 07:59:55;;;;;;;0.20;0.10;;;;;;;;;;4947097;28;20034;-85
2023/12/06 08:02:22;;;;;;;0.20;0.10;;;;;;;;;;4949316;28;20039;-85
2023/12/06 08:04:48;;;;;;;0.20;0.08;;;;;;;;;;4944844;29;20444;-84
2023/12/06 08:07:14;;;;;;;0.30;0.20;;;;;;;;;;4930489;28;20149;-84
2023/12/06 08:09:43;;;;;;;0.65;0.65;;;;;;;;;;4945069;29;20066;-85
2023/12/06 08:12:09;;;;;;;0.20;0.10;;;;;;;;;;4932848;29;20100;-85
2023/12/06 08:14:43;;;;;;;0.20;0.10;;;;;;;;;;4936732;29;20039;-87
2023/12/06 08:17:20;;;;;;;0.20;0.20;;;;;;;;;;4932658;29;20075;-88
2023/12/06 08:19:55;;;;;;;0.32;0.30;;;;;;;;;;4932979;29;20059;-89
2023/12/06 08:22:26;;;;;;;0.20;0.10;;;;;;;;;;4939756;28;20047;-89
2023/12/06 08:24:57;;;;;;;0.50;0.40;;;;;;;;;;4929003;29;20479;-87
2023/12/06 08:27:28;;;;;;;0.20;0.10;;;;;;;;;;4937312;29;20035;-87
2023/12/06 08:29:57;;;;;;;0.20;0.10;;;;;;;;;;4928208;29;20040;-87
2023/12/06 08:32:23;;;;;;;0.20;0.10;;;;;;;;;;4913510;29;20102;-87
2023/12/06 08:34:50;;;;;;;0.20;0.10;;;;;;;;;;4929342;29;20070;-89
2023/12/06 08:37:24;;;;;;;0.20;0.10;;;;;;;;;;4931414;28;20554;-89
2023/12/06 08:39:53;;;;;;;0.20;0.08;;;;;;;;;;4934399;29;20060;-88
2023/12/06 08:42:19;;;;;;;0.20;0.10;;;;;;;;;;4910530;29;20455;-87
2023/12/06 08:44:51;;;;;;;0.20;0.10;;;;;;;;;;4930813;29;20351;-86
2023/12/06 08:51:23;;;;;;;0.73;0.30;;;;;;;;;;4942499;28;20047;-87
2023/12/06 08:54:21;;;;;;;0.20;0.10;;;;;;;;;;4923502;29;20496;-87
2023/12/06 08:57:02;;;;;;;;;;;;;;;;;;;;;
2023/12/06 09:12:39;;;;;;;0.20;0.10;;;;;;;;;;5012946;22;20130;-90
2023/12/06 09:15:08;;;;;;;0.30;0.30;;;;;;;;;;4963661;28;20145;-90
2023/12/06 09:18:00;;;;;;;;;;;;;;;;;;;;;
2023/12/06 09:20:49;;;;;;;;;;;;;;;;;;;;;
2023/12/06 09:23:48;;;;;;;;;;;;;;;;;;;;;
2023/12/06 09:27:06;;;;;;;0.20;0.10;;;;;;;;;;4970876;28;20062;-89
2023/12/06 09:36:16;;;;;;;;;;;;;;;;;;;;;
2023/12/06 09:42:18;;;;;;;0.20;0.10;;;;;;;;;;4956560;28;20153;-87
2023/12/06 09:44:53;;;;;;;0.57;0.43;;;;;;;;;;4968090;28;20038;-86
2023/12/06 09:47:54;;;;;;;0.20;0.10;;;;;;;;;;4905737;29;20098;-86
2023/12/06 09:50:41;;;;;;;0.50;0.28;;;;;;;;;;4917149;28;20058;-87
2023/12/06 09:53:31;;;;;;;0.20;0.10;;;;;;;;;;4966077;28;20061;-87
2023/12/06 09:56:03;;;;;;;;;;;;;;;;;;4952320;28;20045;-87
2023/12/06 09:58:31;;;;;;;0.20;0.10;;;;;;;;;;4948089;28;19917;-89
2023/12/06 10:01:10;;;;;;;0.20;0.10;;;;;;;;;;4993891;28;20089;-88
2023/12/06 10:03:42;;;;;;;0.20;0.10;;;;;;;;;;4962663;28;20113;-88
2023/12/06 10:06:26;;;;;;;0.20;0.10;;;;;;;;;;4996884;28;20693;-89
2023/12/06 10:09:11;;;;;;;0.20;0.10;;;;;;;;;;4962213;28;20038;-85
2023/12/06 10:11:57;;;;;;;0.20;0.10;;;;;;;;;;4953013;28;20030;-87
2023/12/06 10:14:23;;;;;;;0.20;0.10;;;;;;;;;;4980561;28;20566;-83
2023/12/06 10:16:50;;;;;;;1.85;0.30;;;;;;;;;;4989718;28;20040;-83
2023/12/06 10:19:19;;;;;;;0.20;0.10;;;;;;;;;;4967587;28;20571;-83
2023/12/06 10:21:49;;;;;;;0.20;0.10;;;;;;;;;;4958920;28;20034;-82
2023/12/06 10:24:16;;;;;;;0.45;0.45;;;;;;;;;;4980145;28;20046;-82
2023/12/06 10:26:42;;;;;;;0.20;0.10;;;;;;;;;;4990967;28;20088;-84
2023/12/06 10:29:08;;;;;;;0.22;0.20;;;;;;;;;;4991769;28;20045;-83
2023/12/06 10:31:38;;;;;;;0.20;0.10;;;;;;;;;;4988536;28;20486;-82
2023/12/06 10:34:06;;;;;;;0.20;0.10;;;;;;;;;;4970338;28;20050;-85
2023/12/06 10:37:00;;;;;;;0.20;0.10;;;;;;;;;;4979023;28;20045;-86
2023/12/06 10:39:33;;;;;;;0.20;0.10;;;;;;;;;;4965351;28;20513;-87
2023/12/06 10:42:17;;;;;;;0.20;0.20;;;;;;;;;;5000166;28;20077;-87
2023/12/06 10:44:55;;;;;;;0.20;0.10;;;;;;;;;;4986872;28;20041;-88
2023/12/06 10:47:53;;;;;;;0.20;0.10;;;;;;;;;;4986125;28;20038;-88
2023/12/06 10:54:05;;;;;;;;;;;;;;;;;;;;;
2023/12/06 10:59:58;;;;;;;0.20;0.15;;;;;;;;;;4963682;28;20049;-87
2023/12/06 11:02:39;;;;;;;0.20;0.10;;;;;;;;;;4988093;28;20045;-88
2023/12/06 11:08:41;;;;;;;;;;;;;;;;;;;;;
2023/12/06 11:11:47;;;;;;;0.20;0.10;;;;;;;;;;4866942;29;20100;-88
2023/12/06 11:24:56;;;;;;;;;;;;;;;;;;;;;
2023/12/06 11:31:29;;;;;;;0.55;0.55;;;;;;;;;;4928858;29;20122;-88
2023/12/06 11:42:02;;;;;;;0.20;0.10;;;;;;;;;;4853715;29;20060;-88
2023/12/06 11:44:57;;;;;;;0.20;0.10;;;;;;;;;;4932519;28;20048;-86
2023/12/06 11:47:36;;;;;;;0.20;0.05;;;;;;;;;;4898303;29;20047;-88
2023/12/06 11:50:34;;;;;;;0.20;0.10;;;;;;;;;;4899580;29;20498;-87
2023/12/06 11:53:45;;;;;;;0.20;0.10;;;;;;;;;;4896378;29;20091;-87
2023/12/06 11:56:53;;;;;;;0.20;0.10;;;;;;;;;;4887637;29;20056;-86
2023/12/06 12:03:00;;;;;;;0.20;0.10;;;;;;;;;;4927456;28;20050;-87
2023/12/06 12:05:37;;;;;;;0.20;0.10;;;;;;;;;;4956524;28;20042;-86
2023/12/06 12:08:08;;;;;;;0.20;0.10;;;;;;;;;;4970065;28;20090;-87
2023/12/06 12:10:37;;;;;;;0.20;0.10;;;;;;;;;;4979101;28;20071;-86
2023/12/06 12:13:17;;;;;;;0.20;0.10;;;;;;;;;;4997707;28;20049;-85
2023/12/06 12:16:22;;;;;;;0.20;0.10;;;;;;;;;;4949594;28;20061;-85
2023/12/06 12:19:02;;;;;;;;;;;;;;;;;;;;;
2023/12/06 12:21:31;;;;;;;0.20;0.00;;;;;;;;;;4965229;28;20053;-84
2023/12/06 12:24:04;;;;;;;0.20;0.10;;;;;;;;;;4961597;28;20046;-85
2023/12/06 12:26:44;;;;;;;0.20;0.10;;;;;;;;;;4968427;28;20049;-85
2023/12/06 12:29:29;;;;;;;0.20;0.10;;;;;;;;;;4984307;28;20054;-85
2023/12/06 12:35:20;;;;;;;0.22;0.22;;;;;;;;;;4969904;28;20054;-85
2023/12/06 12:38:11;;;;;;;0.20;0.00;;;;;;;;;;4956449;28;20785;-85
2023/12/06 12:43:32;;;;;;;0.20;0.10;;;;;;;;;;4960796;28;20126;-85
2023/12/06 12:46:01;;;;;;;2.22;0.80;;;;;;;;;;4987209;28;20042;-84
2023/12/06 12:48:46;;;;;;;0.20;0.10;;;;;;;;;;4955927;28;20136;-85
2023/12/06 12:51:21;;;;;;;0.20;0.20;;;;;;;;;;4981617;23;20427;-84
2023/12/06 12:54:23;;;;;;;0.40;0.40;;;;;;;;;;4952856;28;20053;-84
2023/12/06 12:56:58;;;;;;;0.20;0.10;;;;;;;;;;4914373;28;20055;-84
2023/12/06 12:59:39;;;;;;;0.20;0.10;;;;;;;;;;4959637;28;20039;-85
2023/12/06 13:02:08;;;;;;;0.20;0.00;;;;;;;;;;4930034;29;20134;-84
2023/12/06 13:04:37;;;;;;;0.20;0.10;;;;;;;;;;4935316;29;20039;-85
2023/12/06 13:07:08;;;;;;;0.20;0.10;;;;;;;;;;4929284;29;20050;-83
2023/12/06 13:09:43;;;;;;;0.85;0.52;;;;;;;;;;4944263;28;20046;-84
2023/12/06 13:12:12;;;;;;;1.02;0.65;;;;;;;;;;4965856;28;20107;-84
2023/12/06 13:14:47;;;;;;;0.20;0.10;;;;;;;;;;4942776;28;20106;-85
2023/12/06 13:17:13;;;;;;;0.20;0.00;;;;;;;;;;4938784;28;20213;-83
2023/12/06 13:19:54;;;;;;;0.20;0.10;;;;;;;;;;4926770;29;20050;-83
2023/12/06 13:22:29;;;;;;;0.20;0.00;;;;;;;;;;4923785;28;20526;-84
2023/12/06 13:25:13;;;;;;;0.20;0.03;;;;;;;;;;4940351;28;20051;-85
2023/12/06 13:27:47;;;;;;;0.20;0.10;;;;;;;;;;4955779;28;20036;-84
2023/12/06 13:30:57;;;;;;;0.20;0.10;;;;;;;;;;4930669;29;20055;-85
2023/12/06 13:34:00;;;;;;;0.20;0.10;;;;;;;;;;4941384;28;20044;-84
2023/12/06 13:36:32;;;;;;;0.20;0.10;;;;;;;;;;4941412;28;20046;-84
2023/12/06 13:38:58;;;;;;;0.20;0.10;;;;;;;;;;4929008;28;20053;-84
2023/12/06 13:41:30;;;;;;;0.20;0.00;;;;;;;;;;4908344;28;20051;-85
2023/12/06 13:44:08;;;;;;;0.30;0.28;;;;;;;;;;4935926;28;20039;-85
2023/12/06 13:46:43;;;;;;;0.20;0.00;;;;;;;;;;4942572;28;20484;-84
2023/12/06 13:49:09;;;;;;;0.20;0.00;;;;;;;;;;4943072;28;20034;-84
2023/12/06 13:51:41;;;;;;;0.20;0.10;;;;;;;;;;4944330;28;20075;-84
2023/12/06 13:54:25;;;;;;;0.20;0.10;;;;;;;;;;4942134;29;20043;-83
2023/12/06 13:57:21;;;;;;;;;;;;;;;;;;4939851;28;20059;-84
2023/12/06 13:59:55;;;;;;;0.20;0.10;;;;;;;;;;4943631;28;19928;-84
2023/12/06 14:02:41;;;;;;;0.20;0.10;;;;;;;;;;4924112;29;20051;-84
2023/12/06 14:05:30;;;;;;;0.20;0.10;;;;;;;;;;4928675;29;20075;-83
2023/12/06 14:08:17;;;;;;;0.20;0.13;;;;;;;;;;4942049;28;20067;-85
2023/12/06 14:10:43;;;;;;;0.20;0.00;;;;;;;;;;4946437;28;20039;-83
2023/12/06 14:13:32;;;;;;;0.20;0.00;;;;;;;;;;4944090;28;20049;-84
2023/12/06 14:16:21;;;;;;;0.20;0.10;;;;;;;;;;4937388;28;20047;-86
2023/12/06 14:18:54;;;;;;;0.52;0.52;;;;;;;;;;4927375;28;20050;-84
2023/12/06 14:21:24;;;;;;;0.20;0.00;;;;;;;;;;4943365;28;20042;-85
2023/12/06 14:27:03;;;;;;;0.20;0.10;;;;;;;;;;4930586;28;20055;-86
2023/12/06 14:29:42;;;;;;;0.20;0.10;;;;;;;;;;4942052;28;20054;-86
2023/12/06 14:32:08;;;;;;;0.20;0.00;;;;;;;;;;4941992;28;20072;-85
2023/12/06 14:34:51;;;;;;;0.20;0.10;;;;;;;;;;4946710;28;20046;-84
2023/12/06 14:37:37;;;;;;;0.20;0.10;;;;;;;;;;4943813;28;20050;-84
2023/12/06 14:40:08;;;;;;;0.20;0.10;;;;;;;;;;4966839;28;20423;-85
2023/12/06 14:42:50;;;;;;;0.73;0.73;;;;;;;;;;4952039;28;20071;-85
2023/12/06 14:45:22;;;;;;;0.20;0.10;;;;;;;;;;4946646;28;20079;-85
2023/12/06 14:47:49;;;;;;;0.20;0.10;;;;;;;;;;4945010;28;20043;-85
2023/12/06 14:50:28;;;;;;;0.20;0.10;;;;;;;;;;4940290;28;20032;-83
2023/12/06 14:53:12;;;;;;;0.20;0.10;;;;;;;;;;4943283;28;20071;-85
2023/12/06 14:55:41;;;;;;;0.20;0.10;;;;;;;;;;4960859;28;20043;-85
2023/12/06 14:58:18;;;;;;;0.20;0.10;;;;;;;;;;4929092;28;20130;-85
2023/12/06 15:00:52;;;;;;;0.20;0.10;;;;;;;;;;4940711;28;20051;-85
2023/12/06 15:03:26;;;;;;;0.20;0.10;;;;;;;;;;4947106;29;20035;-84
2023/12/06 15:06:01;;;;;;;0.20;0.10;;;;;;;;;;4952051;28;20067;-85
2023/12/06 15:08:27;;;;;;;0.20;0.10;;;;;;;;;;4948820;28;20043;-84
2023/12/06 15:11:01;;;;;;;0.20;0.08;;;;;;;;;;4948792;28;20051;-85
2023/12/06 15:13:30;;;;;;;0.20;0.00;;;;;;;;;;4948155;28;20420;-84
2023/12/06 15:15:58;;;;;;;0.20;0.10;;;;;;;;;;4946746;28;20527;-84
2023/12/06 15:18:25;;;;;;;0.20;0.10;;;;;;;;;;4945898;28;20047;-85
2023/12/06 15:20:57;;;;;;;0.20;0.10;;;;;;;;;;4926065;28;20480;-84
2023/12/06 15:23:25;;;;;;;0.20;0.10;;;;;;;;;;4930260;29;20119;-85
2023/12/06 15:26:00;;;;;;;0.35;0.35;;;;;;;;;;4944549;28;20394;-84
2023/12/06 15:28:35;;;;;;;0.20;0.00;;;;;;;;;;4943688;28;20079;-85
2023/12/06 15:31:04;;;;;;;0.20;0.10;;;;;;;;;;4942315;29;20050;-87
2023/12/06 15:33:30;;;;;;;0.20;0.10;;;;;;;;;;4940852;28;20468;-84
2023/12/06 15:35:56;;;;;;;0.20;0.10;;;;;;;;;;4935944;28;20043;-84
2023/12/06 15:38:24;;;;;;;0.20;0.00;;;;;;;;;;4942089;28;20039;-84
2023/12/06 15:40:50;;;;;;;0.20;0.10;;;;;;;;;;4965333;28;20200;-83
2023/12/06 15:43:17;;;;;;;0.20;0.10;;;;;;;;;;4931368;29;20051;-83
2023/12/06 15:45:43;;;;;;;0.20;0.10;;;;;;;;;;4948291;28;20035;-83
2023/12/06 15:48:09;;;;;;;0.20;0.10;;;;;;;;;;4946116;28;20057;-83
2023/12/06 15:50:35;;;;;;;0.20;0.10;;;;;;;;;;4943721;28;20511;-83
2023/12/06 15:53:03;;;;;;;0.20;0.10;;;;;;;;;;4946552;28;20047;-84
2023/12/06 15:55:32;;;;;;;0.20;0.10;;;;;;;;;;4930979;29;20045;-84
2023/12/06 15:57:58;;;;;;;0.20;0.00;;;;;;;;;;4959807;28;20205;-83
2023/12/06 16:00:45;;;;;;;0.20;0.10;;;;;;;;;;4947918;28;20122;-84
2023/12/06 16:03:11;;;;;;;0.20;0.00;;;;;;;;;;4942248;28;20054;-83
2023/12/06 16:05:43;;;;;;;0.20;0.10;;;;;;;;;;4929393;28;20059;-84
2023/12/06 16:08:09;;;;;;;0.40;0.40;;;;;;;;;;4945145;28;20046;-85
2023/12/06 16:10:35;;;;;;;0.20;0.10;;;;;;;;;;4932283;29;20055;-83
2023/12/06 16:13:02;;;;;;;0.20;0.10;;;;;;;;;;4941915;28;20047;-84
2023/12/06 16:15:31;;;;;;;0.20;0.10;;;;;;;;;;4947577;29;20094;-83
2023/12/06 16:17:59;;;;;;;0.20;0.10;;;;;;;;;;4942782;28;20051;-82
2023/12/06 16:20:26;;;;;;;0.30;0.30;;;;;;;;;;4948161;29;20051;-83
2023/12/06 16:23:24;;;;;;;0.20;0.10;;;;;;;;;;4931526;29;20059;-83
2023/12/06 16:25:54;;;;;;;0.20;0.10;;;;;;;;;;4945899;28;20043;-83
2023/12/06 16:28:36;;;;;;;;;;;;;;;;;;;;;
2023/12/06 16:31:15;;;;;;;0.20;0.10;;;;;;;;;;4949942;29;20548;-85
2023/12/06 16:33:41;;;;;;;1.63;0.75;;;;;;;;;;4944276;28;20039;-84
2023/12/06 16:36:07;;;;;;;0.20;0.00;;;;;;;;;;4943427;28;20134;-85
2023/12/06 16:38:33;;;;;;;1.85;0.47;;;;;;;;;;4925348;29;20036;-86
2023/12/06 16:41:08;;;;;;;0.25;0.15;;;;;;;;;;4928056;29;20055;-86
2023/12/06 16:43:37;;;;;;;0.20;0.10;;;;;;;;;;4945258;29;20170;-84
2023/12/06 16:46:03;;;;;;;0.20;0.10;;;;;;;;;;4959684;28;20053;-85
2023/12/06 16:48:29;;;;;;;0.20;0.10;;;;;;;;;;4961958;28;20460;-85
2023/12/06 16:50:58;;;;;;;0.20;0.00;;;;;;;;;;4942291;28;20051;-85
2023/12/06 16:53:24;;;;;;;0.20;0.20;;;;;;;;;;4943603;28;20054;-83